createdAt,value
2022-12-11T00:00:49.177Z,96697.78
2022-12-11T00:03:19.303Z,96699.50
2022-12-11T00:05:46.496Z,96683.28
2022-12-11T00:08:13.364Z,96694.50
2022-12-11T00:10:40.336Z,96699.50
2022-12-11T00:13:07.047Z,96693.19
2022-12-11T00:15:33.807Z,96700.72
2022-12-11T00:18:00.389Z,96676.88
2022-12-11T00:20:27.201Z,96693.28
2022-12-11T00:22:53.877Z,96669.75
2022-12-11T00:25:20.607Z,96690.41
2022-12-11T00:27:47.587Z,96694.13
2022-12-11T00:30:14.824Z,96686.16
2022-12-11T00:32:41.675Z,96698.38
2022-12-11T00:35:09.149Z,96703.56
2022-12-11T00:37:36.171Z,96700.72
2022-12-11T00:40:03.102Z,96693.59
2022-12-11T00:42:29.769Z,96695.81
2022-12-11T00:44:56.456Z,96712.66
2022-12-11T00:47:23.259Z,96698.69
2022-12-11T00:49:50.340Z,96706.34
2022-12-11T00:52:18.079Z,96705.00
2022-12-11T00:54:45.207Z,96703.56
2022-12-11T00:57:11.882Z,96705.41
2022-12-11T00:59:38.952Z,96704.56
2022-12-11T01:02:05.640Z,96710.31
2022-12-11T01:04:32.447Z,96717.13
2022-12-11T01:06:59.053Z,96726.06
2022-12-11T01:09:44.140Z,96711.31
2022-12-11T01:12:10.781Z,96718.44
2022-12-11T01:14:37.341Z,96715.59
2022-12-11T01:17:04.162Z,96702.66
2022-12-11T01:19:31.017Z,96705.78
2022-12-11T01:21:57.618Z,96710.28
2022-12-11T01:24:24.349Z,96699.47
2022-12-11T01:26:51.122Z,96724.97
2022-12-11T01:29:17.774Z,96722.59
2022-12-11T01:31:44.712Z,96733.91
2022-12-11T01:34:11.307Z,96732.19
2022-12-11T01:36:37.923Z,96732.19
2022-12-11T01:39:04.509Z,96729.25
2022-12-11T01:41:31.244Z,96738.00
2022-12-11T01:44:06.154Z,96738.63
2022-12-11T01:46:35.976Z,96716.28
2022-12-11T01:49:07.346Z,96728.31
2022-12-11T01:51:39.103Z,96741.06
2022-12-11T01:54:11.589Z,96750.59
2022-12-11T01:56:42.056Z,96767.63
2022-12-11T01:59:10.150Z,96746.72
2022-12-11T02:01:45.156Z,96745.94
2022-12-11T02:04:15.904Z,96759.34
2022-12-11T02:06:45.438Z,96755.59
2022-12-11T02:09:15.148Z,96759.16
2022-12-11T02:11:57.656Z,96745.81
2022-12-11T02:14:24.385Z,96762.53
2022-12-11T02:16:55.159Z,96773.63
2022-12-11T02:19:39.198Z,96761.69
2022-12-11T02:22:11.561Z,96762.72
2022-12-11T02:24:41.269Z,96781.47
2022-12-11T02:27:32.376Z,96771.28
2022-12-11T02:30:08.099Z,96763.84
2022-12-11T02:32:57.696Z,96769.75
2022-12-11T02:35:43.639Z,96771.28
2022-12-11T02:38:19.281Z,96768.53
2022-12-11T02:40:48.860Z,96776.66
2022-12-11T02:43:18.009Z,96760.19
2022-12-11T02:45:46.899Z,96763.81
2022-12-11T02:48:15.063Z,96789.06
2022-12-11T02:50:46.563Z,96776.81
2022-12-11T02:53:18.671Z,96790.78
2022-12-11T02:55:47.461Z,96778.97
2022-12-11T02:58:25.543Z,96793.97
2022-12-11T03:00:52.274Z,96776.81
2022-12-11T03:03:18.946Z,96758.84
2022-12-11T03:05:46.368Z,96786.63
2022-12-11T03:08:17.410Z,96774.56
2022-12-11T03:10:45.461Z,96783.94
2022-12-11T03:13:16.849Z,96764.47
2022-12-11T03:15:52.338Z,96767.25
2022-12-11T03:18:27.573Z,96768.41
2022-12-11T03:21:05.043Z,96784.09
2022-12-11T03:23:52.719Z,96795.47
2022-12-11T03:26:21.952Z,96787.31
2022-12-11T03:28:56.152Z,96796.66
2022-12-11T03:31:36.843Z,96800.28
2022-12-11T03:34:12.276Z,96810.28
2022-12-11T03:36:40.023Z,96793.91
2022-12-11T03:39:12.647Z,96808.25
2022-12-11T03:41:41.104Z,96799.19
2022-12-11T03:44:09.143Z,96774.69
2022-12-11T03:46:39.254Z,96798.56
2022-12-11T03:49:15.408Z,96789.75
2022-12-11T03:51:43.344Z,96800.19
2022-12-11T03:54:11.173Z,96800.00
2022-12-11T03:56:39.880Z,96802.84
2022-12-11T03:59:06.645Z,96806.75
2022-12-11T04:01:33.345Z,96815.56
2022-12-11T04:03:59.993Z,96815.47
2022-12-11T04:06:26.853Z,96798.94
2022-12-11T04:08:53.488Z,96818.47
2022-12-11T04:11:35.178Z,96817.31
2022-12-11T04:14:24.192Z,96830.94
2022-12-11T04:16:51.045Z,96819.16
2022-12-11T04:19:36.690Z,96818.31
2022-12-11T04:22:22.507Z,96827.50
2022-12-11T04:24:50.212Z,96817.69
2022-12-11T04:27:36.874Z,96829.56
2022-12-11T04:30:06.680Z,96825.13
2022-12-11T04:32:33.280Z,96811.97
2022-12-11T04:34:59.918Z,96827.88
2022-12-11T04:37:28.298Z,96822.03
2022-12-11T04:39:54.912Z,96823.59
2022-12-11T04:42:21.540Z,96814.50
2022-12-11T04:44:48.073Z,96825.94
2022-12-11T04:47:14.771Z,96824.22
2022-12-11T04:49:41.388Z,96816.59
2022-12-11T04:52:08.329Z,96824.94
2022-12-11T04:54:35.046Z,96819.50
2022-12-11T04:57:01.764Z,96817.16
2022-12-11T04:59:28.394Z,96821.25
2022-12-11T05:01:55.102Z,96824.50
2022-12-11T05:04:21.801Z,96814.69
2022-12-11T05:06:50.097Z,96814.78
2022-12-11T05:09:17.270Z,96803.16
2022-12-11T05:11:43.974Z,96808.34
2022-12-11T05:14:10.713Z,96799.34
2022-12-11T05:16:37.392Z,96807.78
2022-12-11T05:19:04.027Z,96803.72
2022-12-11T05:21:34.985Z,96819.13
2022-12-11T05:24:02.507Z,96818.25
2022-12-11T05:26:29.180Z,96822.53
2022-12-11T05:28:56.278Z,96832.88
2022-12-11T05:31:25.182Z,96829.88
2022-12-11T05:33:52.847Z,96831.69
2022-12-11T05:36:31.574Z,96836.75
2022-12-11T05:38:59.488Z,96830.06
2022-12-11T05:41:28.396Z,96826.44
2022-12-11T05:43:55.277Z,96832.53
2022-12-11T05:46:24.751Z,96801.63
2022-12-11T05:48:54.883Z,96816.88
2022-12-11T05:51:21.811Z,96831.88
2022-12-11T05:53:50.882Z,96842.13
2022-12-11T05:56:26.494Z,96832.81
2022-12-11T05:58:53.569Z,96831.97
2022-12-11T06:01:24.508Z,96835.06
2022-12-11T06:03:51.730Z,96820.72
2022-12-11T06:06:18.466Z,96845.41
2022-12-11T06:08:45.150Z,96841.25
2022-12-11T06:11:20.936Z,96837.69
2022-12-11T06:13:50.488Z,96843.13
2022-12-11T06:16:17.165Z,96850.47
2022-12-11T06:18:45.077Z,96846.50
2022-12-11T06:21:21.520Z,96850.75
2022-12-11T06:23:49.805Z,96848.03
2022-12-11T06:26:17.457Z,96858.66
2022-12-11T06:28:44.227Z,96849.25
2022-12-11T06:31:11.805Z,96847.78
2022-12-11T06:33:39.080Z,96854.56
2022-12-11T06:36:08.225Z,96842.22
2022-12-11T06:38:35.507Z,96861.59
2022-12-11T06:41:04.902Z,96856.69
2022-12-11T06:43:32.638Z,96855.94
2022-12-11T06:46:03.766Z,96868.28
2022-12-11T06:48:31.808Z,96858.47
2022-12-11T06:50:58.444Z,96863.84
2022-12-11T06:53:25.123Z,96845.75
2022-12-11T06:55:51.831Z,96872.84
2022-12-11T06:58:18.523Z,96863.03
2022-12-11T07:00:45.172Z,96869.09
2022-12-11T07:03:13.680Z,96873.19
2022-12-11T07:05:40.337Z,96873.63
2022-12-11T07:08:07.387Z,96859.28
2022-12-11T07:10:34.309Z,96877.34
2022-12-11T07:13:01.479Z,96879.00
2022-12-11T07:15:28.289Z,96882.53
2022-12-11T07:17:55.139Z,96885.81
2022-12-11T07:20:22.083Z,96886.63
2022-12-11T07:22:48.832Z,96893.34
2022-12-11T07:25:15.704Z,96903.63
2022-12-11T07:27:42.608Z,96904.69
2022-12-11T07:30:10.698Z,96890.84
2022-12-11T07:32:37.824Z,96912.94
2022-12-11T07:35:05.118Z,96911.41
2022-12-11T07:37:31.787Z,96907.97
2022-12-11T07:39:58.385Z,96915.84
2022-12-11T07:42:25.395Z,96917.50
2022-12-11T07:44:52.032Z,96921.75
2022-12-11T07:47:19.037Z,96908.41
2022-12-11T07:49:45.687Z,96915.75
2022-12-11T07:52:12.431Z,96907.47
2022-12-11T07:54:39.031Z,96904.22
2022-12-11T07:57:12.323Z,96884.75
2022-12-11T07:59:41.916Z,96916.16
2022-12-11T08:02:11.929Z,96890.53
2022-12-11T08:04:38.858Z,96908.78
2022-12-11T08:07:05.460Z,96923.88
2022-12-11T08:09:32.163Z,96922.78
2022-12-11T08:11:58.882Z,96924.59
2022-12-11T08:14:25.572Z,96922.22
2022-12-11T08:16:52.360Z,96943.94
2022-12-11T08:19:19.002Z,96913.69
2022-12-11T08:21:45.683Z,96923.88
2022-12-11T08:24:16.323Z,96933.69
2022-12-11T08:26:44.527Z,96931.81
2022-12-11T08:29:11.270Z,96926.63
2022-12-11T08:31:40.183Z,96922.06
2022-12-11T08:34:07.290Z,96942.44
2022-12-11T08:36:34.222Z,96921.72
2022-12-11T08:39:01.009Z,96957.53
2022-12-11T08:41:30.249Z,96951.38
2022-12-11T08:44:00.405Z,96947.72
2022-12-11T08:46:30.369Z,96966.97
2022-12-11T08:48:58.132Z,96961.75
2022-12-11T08:51:28.160Z,96960.91
2022-12-11T08:53:59.954Z,96956.66
2022-12-11T08:56:28.393Z,96974.38
2022-12-11T08:58:55.533Z,96968.63
2022-12-11T09:01:25.448Z,96961.94
2022-12-11T09:03:53.660Z,96971.47
2022-12-11T09:06:22.688Z,96967.81
2022-12-11T09:08:52.911Z,96976.66
2022-12-11T09:11:23.267Z,96962.94
2022-12-11T09:13:50.582Z,96964.00
2022-12-11T09:16:20.063Z,96972.91
2022-12-11T09:18:48.472Z,96962.03
2022-12-11T09:21:18.691Z,96964.19
2022-12-11T09:23:46.430Z,96969.94
2022-12-11T09:26:15.763Z,96966.84
2022-12-11T09:28:46.513Z,96966.75
2022-12-11T09:31:20.171Z,96977.38
2022-12-11T09:33:48.229Z,96982.47
2022-12-11T09:36:15.789Z,96977.28
2022-12-11T09:38:45.623Z,96973.66
2022-12-11T09:41:36.277Z,96977.91
2022-12-11T09:44:32.419Z,96981.00
2022-12-11T09:46:59.686Z,96983.47
2022-12-11T09:49:43.664Z,96966.38
2022-12-11T09:52:20.053Z,96965.53
2022-12-11T09:54:57.634Z,96950.91
2022-12-11T09:57:35.992Z,96952.34
2022-12-11T10:00:09.648Z,96957.63
2022-12-11T10:03:07.320Z,96962.97
2022-12-11T10:06:04.456Z,96963.72
2022-12-11T10:08:56.879Z,96957.63
2022-12-11T10:11:56.722Z,96942.94
2022-12-11T10:15:19.687Z,96945.50
2022-12-11T10:17:47.555Z,96945.50
2022-12-11T10:20:26.973Z,96952.78
2022-12-11T10:22:56.203Z,96921.22
2022-12-11T10:25:28.353Z,96938.19
2022-12-11T10:27:55.573Z,96937.28
2022-12-11T10:30:34.383Z,96945.66
2022-12-11T10:33:22.514Z,96924.34
2022-12-11T10:35:54.928Z,96932.00
2022-12-11T10:38:31.854Z,96915.97
2022-12-11T10:41:04.009Z,96923.50
2022-12-11T10:43:36.684Z,96926.50
2022-12-11T10:46:05.038Z,96922.97
2022-12-11T10:48:31.852Z,96925.22
2022-12-11T10:51:05.103Z,96928.69
2022-12-11T10:53:33.441Z,96925.09
2022-12-11T10:56:01.546Z,96930.75
2022-12-11T10:58:34.240Z,96920.94
2022-12-11T11:01:19.058Z,96934.19
2022-12-11T11:03:56.798Z,96932.16
2022-12-11T11:06:25.133Z,96938.50
2022-12-11T11:08:54.507Z,96926.66
2022-12-11T11:11:27.211Z,96935.66
2022-12-11T11:14:17.546Z,96939.84
2022-12-11T11:16:47.137Z,96947.91
2022-12-11T11:19:30.581Z,96934.78
2022-12-11T11:22:17.980Z,96930.22
2022-12-11T11:24:46.905Z,96933.56
2022-12-11T11:27:26.170Z,96920.72
2022-12-11T11:30:00.667Z,96919.38
2022-12-11T11:32:34.158Z,96924.28
2022-12-11T11:35:13.661Z,96927.56
2022-12-11T11:37:46.230Z,96915.00
2022-12-11T11:40:19.861Z,96914.81
2022-12-11T11:42:56.415Z,96923.47
2022-12-11T11:45:32.193Z,96918.16
2022-12-11T11:48:30.057Z,96920.41
2022-12-11T11:50:58.107Z,96900.31
2022-12-11T11:53:31.402Z,96904.09
2022-12-11T11:56:22.531Z,96917.28
2022-12-11T11:59:02.268Z,96910.75
2022-12-11T12:01:30.056Z,96906.53
2022-12-11T12:03:57.663Z,96907.53
2022-12-11T12:07:06.962Z,96920.28
2022-12-11T12:09:33.684Z,96918.22
2022-12-11T12:12:12.058Z,96919.25
2022-12-11T12:15:07.754Z,96915.31
2022-12-11T12:17:56.640Z,96901.91
2022-12-11T12:20:29.826Z,96905.38
2022-12-11T12:23:15.776Z,96911.53
2022-12-11T12:25:45.514Z,96907.81
2022-12-11T12:28:36.407Z,96904.88
2022-12-11T12:31:14.504Z,96901.44
2022-12-11T12:34:03.042Z,96906.59
2022-12-11T12:36:32.847Z,96903.66
2022-12-11T12:38:59.488Z,96903.56
2022-12-11T12:41:52.601Z,96899.25
2022-12-11T12:44:22.397Z,96898.25
2022-12-11T12:46:51.963Z,96901.72
2022-12-11T12:49:53.229Z,96880.91
2022-12-11T12:52:46.526Z,96903.34
2022-12-11T12:55:18.022Z,96905.59
2022-12-11T12:58:00.188Z,96901.59
2022-12-11T13:00:43.967Z,96897.13
2022-12-11T13:03:17.121Z,96899.69
2022-12-11T13:05:55.434Z,96899.69
2022-12-11T13:08:34.815Z,96887.34
2022-12-11T13:11:07.682Z,96904.16
2022-12-11T13:13:34.291Z,96909.09
2022-12-11T13:16:16.191Z,96904.78
2022-12-11T13:18:48.170Z,96904.09
2022-12-11T13:21:32.241Z,96902.66
2022-12-11T13:24:21.441Z,96898.16
2022-12-11T13:26:49.856Z,96903.56
2022-12-11T13:29:37.818Z,96899.69
2022-12-11T13:32:10.425Z,96908.56
2022-12-11T13:34:41.009Z,96903.88
2022-12-11T13:37:26.014Z,96914.41
2022-12-11T13:39:53.098Z,96910.41
2022-12-11T13:42:27.680Z,96914.50
2022-12-11T13:44:54.515Z,96908.16
2022-12-11T13:47:21.692Z,96927.16
2022-12-11T13:49:54.622Z,96918.66
2022-12-11T13:52:25.836Z,96922.41
2022-12-11T13:54:55.681Z,96931.50
2022-12-11T13:57:28.681Z,96932.22
2022-12-11T13:59:57.668Z,96935.28
2022-12-11T14:02:30.367Z,96930.28
2022-12-11T14:05:01.953Z,96932.13
2022-12-11T14:07:33.574Z,96948.16
2022-12-11T14:10:14.366Z,96936.41
2022-12-11T14:12:56.165Z,96947.66
2022-12-11T14:15:23.492Z,96951.66
2022-12-11T14:17:52.054Z,96957.88
2022-12-11T14:20:23.092Z,96946.94
2022-12-11T14:22:50.096Z,96950.72
2022-12-11T14:25:34.846Z,96954.38
2022-12-11T14:28:01.747Z,96956.03
2022-12-11T14:30:31.655Z,96962.16
2022-12-11T14:33:02.830Z,96964.09
2022-12-11T14:35:38.888Z,96964.41
2022-12-11T14:38:33.044Z,96976.47
2022-12-11T14:41:05.611Z,96977.59
2022-12-11T14:43:48.474Z,96974.63
2022-12-11T14:46:23.721Z,96971.03
2022-12-11T14:49:02.119Z,96981.47
2022-12-11T14:51:34.867Z,96983.38
2022-12-11T14:54:03.114Z,96984.53
2022-12-11T14:56:30.535Z,96985.22
2022-12-11T14:59:03.092Z,96983.88
2022-12-11T15:01:32.827Z,96971.91
2022-12-11T15:04:04.038Z,96980.84
2022-12-11T15:06:43.489Z,96990.81
2022-12-11T15:09:18.031Z,96992.00
2022-12-11T15:11:45.781Z,97000.66
2022-12-11T15:14:13.867Z,97000.44
2022-12-11T15:16:42.208Z,96996.22
2022-12-11T15:19:19.324Z,97007.84
2022-12-11T15:21:46.162Z,97012.69
2022-12-11T15:24:24.978Z,97011.59
2022-12-11T15:26:52.293Z,97022.19
2022-12-11T15:29:40.116Z,97025.38
2022-12-11T15:32:09.825Z,97022.31
2022-12-11T15:34:46.089Z,97016.75
2022-12-11T15:37:30.742Z,97021.41
2022-12-11T15:39:59.852Z,97028.41
2022-12-11T15:42:32.385Z,97022.22
2022-12-11T15:45:00.274Z,97034.31
2022-12-11T15:47:30.062Z,97033.13
2022-12-11T15:50:21.740Z,97037.41
2022-12-11T15:52:49.490Z,97041.41
2022-12-11T15:55:16.652Z,97036.84
2022-12-11T15:57:47.332Z,97047.94
2022-12-11T16:00:15.928Z,97051.75
2022-12-11T16:02:42.805Z,97057.03
2022-12-11T16:05:10.060Z,97056.38
2022-12-11T16:07:37.170Z,97063.19
2022-12-11T16:10:05.060Z,97064.28
2022-12-11T16:12:32.408Z,97068.56
2022-12-11T16:14:59.275Z,97068.47
2022-12-11T16:17:26.584Z,97066.34
2022-12-11T16:19:54.278Z,97072.19
2022-12-11T16:22:20.943Z,97046.88
2022-12-11T16:24:47.725Z,97068.09
2022-12-11T16:27:17.397Z,97074.72
2022-12-11T16:29:48.295Z,97077.47
2022-12-11T16:32:15.159Z,97077.53
2022-12-11T16:34:41.891Z,97083.81
2022-12-11T16:37:09.413Z,97086.25
2022-12-11T16:39:37.894Z,97080.09
2022-12-11T16:42:06.165Z,97066.97
2022-12-11T16:44:33.344Z,97079.78
2022-12-11T16:47:00.225Z,97080.50
2022-12-11T16:49:27.036Z,97078.94
2022-12-11T16:51:53.628Z,97086.28
2022-12-11T16:54:20.355Z,97083.72
2022-12-11T16:56:47.104Z,97077.25
2022-12-11T16:59:13.827Z,97085.56
2022-12-11T17:01:41.833Z,97082.28
2022-12-11T17:04:08.868Z,97080.72
2022-12-11T17:06:35.570Z,97084.00
2022-12-11T17:09:02.671Z,97074.56
2022-12-11T17:11:29.356Z,97080.72
2022-12-11T17:13:58.036Z,97079.88
2022-12-11T17:16:26.574Z,97084.88
2022-12-11T17:18:53.571Z,97079.16
2022-12-11T17:21:22.335Z,97079.53
2022-12-11T17:23:50.531Z,97081.50
2022-12-11T17:26:18.054Z,97073.28
2022-12-11T17:28:44.874Z,97071.19
2022-12-11T17:31:15.264Z,97079.59
2022-12-11T17:33:42.371Z,97078.06
2022-12-11T17:36:13.319Z,97092.25
2022-12-11T17:38:40.188Z,97085.44
2022-12-11T17:41:08.995Z,97079.78
2022-12-11T17:43:36.058Z,97076.34
2022-12-11T17:46:03.230Z,97080.22
2022-12-11T17:48:30.095Z,97065.53
2022-12-11T17:50:56.781Z,97082.00
2022-12-11T17:53:24.430Z,97089.72
2022-12-11T17:55:52.124Z,97092.75
2022-12-11T17:58:23.361Z,97094.00
2022-12-11T18:00:53.209Z,97099.25
2022-12-11T18:03:20.655Z,97085.94
2022-12-11T18:05:52.445Z,97104.47
2022-12-11T18:08:30.174Z,97105.38
2022-12-11T18:11:05.359Z,97107.34
2022-12-11T18:13:32.999Z,97103.06
2022-12-11T18:16:11.616Z,97099.81
2022-12-11T18:18:39.295Z,97094.81
2022-12-11T18:21:06.615Z,97108.56
2022-12-11T18:23:34.243Z,97104.63
2022-12-11T18:26:01.906Z,97114.63
2022-12-11T18:28:31.747Z,97109.31
2022-12-11T18:31:02.698Z,97109.63
2022-12-11T18:33:30.952Z,97108.91
2022-12-11T18:35:57.659Z,97114.97
2022-12-11T18:38:24.485Z,97108.41
2022-12-11T18:40:51.174Z,97109.47
2022-12-11T18:43:18.291Z,97108.38
2022-12-11T18:45:45.626Z,97112.72
2022-12-11T18:48:13.344Z,97114.66
2022-12-11T18:50:51.249Z,97132.75
2022-12-11T18:53:18.798Z,97121.50
2022-12-11T18:55:47.476Z,97141.16
2022-12-11T18:58:16.271Z,97141.09
2022-12-11T19:00:43.574Z,97147.16
2022-12-11T19:03:12.011Z,97150.81
2022-12-11T19:05:42.351Z,97154.69
2022-12-11T19:08:09.581Z,97152.81
2022-12-11T19:10:42.159Z,97158.50
2022-12-11T19:13:09.145Z,97155.25
2022-12-11T19:15:42.337Z,97148.84
2022-12-11T19:18:10.209Z,97159.59
2022-12-11T19:21:04.679Z,97161.19
2022-12-11T19:23:25.578Z,97161.84
2022-12-11T19:25:52.285Z,97171.13
2022-12-11T19:28:19.023Z,97173.91
2022-12-11T19:30:48.759Z,97181.72
2022-12-11T19:33:16.553Z,97190.66
2022-12-11T19:35:43.666Z,97197.50
2022-12-11T19:38:10.578Z,97198.66
2022-12-11T19:40:41.893Z,97203.88
2022-12-11T19:43:09.089Z,97189.69
2022-12-11T19:45:36.092Z,97212.63
2022-12-11T19:48:03.365Z,97220.97
2022-12-11T19:50:30.074Z,97212.41
2022-12-11T19:52:57.055Z,97218.88
2022-12-11T19:55:23.752Z,97221.09
2022-12-11T19:57:50.737Z,97241.66
2022-12-11T20:00:18.782Z,97242.38
2022-12-11T20:02:45.511Z,97228.34
2022-12-11T20:05:13.106Z,97234.00
2022-12-11T20:07:40.385Z,97233.72
2022-12-11T20:10:07.532Z,97243.66
2022-12-11T20:12:34.278Z,97240.94
2022-12-11T20:15:01.204Z,97247.63
2022-12-11T20:17:28.254Z,97242.56
2022-12-11T20:19:55.035Z,97240.94
2022-12-11T20:22:24.478Z,97234.34
2022-12-11T20:24:51.368Z,97237.91
2022-12-11T20:27:26.160Z,97239.34
2022-12-11T20:30:02.884Z,97242.25
2022-12-11T20:32:34.242Z,97229.50
2022-12-11T20:35:01.027Z,97238.84
2022-12-11T20:37:29.005Z,97240.34
2022-12-11T20:39:55.988Z,97235.53
2022-12-11T20:42:22.719Z,97240.59
2022-12-11T20:44:49.874Z,97235.66
2022-12-11T20:47:19.905Z,97254.22
2022-12-11T20:49:48.078Z,97238.34
2022-12-11T20:52:15.435Z,97239.56
2022-12-11T20:54:42.452Z,97241.16
2022-12-11T20:57:09.924Z,97243.13
2022-12-11T20:59:37.071Z,97245.34
2022-12-11T21:02:05.239Z,97244.28
2022-12-11T21:04:31.994Z,97245.59
2022-12-11T21:07:00.155Z,97252.19
2022-12-11T21:09:27.780Z,97256.53
2022-12-11T21:11:58.133Z,97263.72
2022-12-11T21:14:24.975Z,97260.34
2022-12-11T21:16:52.101Z,97261.03
2022-12-11T21:19:20.259Z,97260.91
2022-12-11T21:21:47.090Z,97261.84
2022-12-11T21:24:22.968Z,97254.72
2022-12-11T21:26:50.204Z,97260.81
2022-12-11T21:29:17.577Z,97264.56
2022-12-11T21:31:44.678Z,97260.50
2022-12-11T21:34:11.332Z,97274.03
2022-12-11T21:36:38.167Z,97274.94
2022-12-11T21:39:05.312Z,97278.53
2022-12-11T21:41:32.727Z,97274.78
2022-12-11T21:45:26.060Z,97268.81
2022-12-11T21:46:46.734Z,97266.09
2022-12-11T21:49:13.353Z,97266.53
2022-12-11T21:51:46.735Z,97267.16
2022-12-11T21:54:17.226Z,97269.22
2022-12-11T21:56:45.157Z,97276.41
2022-12-11T21:59:12.269Z,97272.94
2022-12-11T22:01:42.248Z,97271.72
2022-12-11T22:04:10.824Z,97266.16
2022-12-11T22:06:37.499Z,97269.63
2022-12-11T22:09:06.000Z,97271.28
2022-12-11T22:11:34.109Z,97273.81
2022-12-11T22:14:01.371Z,97270.81
2022-12-11T22:16:28.831Z,97285.53
2022-12-11T22:18:55.887Z,97278.53
2022-12-11T22:21:23.552Z,97284.47
2022-12-11T22:23:50.692Z,97289.38
2022-12-11T22:26:23.892Z,97280.13
2022-12-11T22:28:50.711Z,97281.00
2022-12-11T22:31:20.650Z,97281.94
2022-12-11T22:33:49.967Z,97281.53
2022-12-11T22:36:19.871Z,97285.09
2022-12-11T22:38:47.370Z,97295.97
2022-12-11T22:41:21.974Z,97290.66
2022-12-11T22:43:49.285Z,97304.97
2022-12-11T22:46:18.281Z,97298.91
2022-12-11T22:48:45.086Z,97310.97
2022-12-11T22:51:12.351Z,97305.34
2022-12-11T22:53:39.317Z,97309.50
2022-12-11T22:56:07.594Z,97301.63
2022-12-11T22:58:35.119Z,97307.56
2022-12-11T23:01:02.051Z,97312.81
2022-12-11T23:03:28.699Z,97304.03
2022-12-11T23:05:55.420Z,97308.56
2022-12-11T23:08:22.290Z,97311.28
2022-12-11T23:10:49.111Z,97312.34
2022-12-11T23:13:15.863Z,97308.69
2022-12-11T23:15:42.415Z,97320.34
2022-12-11T23:18:09.036Z,97320.22
2022-12-11T23:20:35.879Z,97319.63
2022-12-11T23:23:02.839Z,97320.56
2022-12-11T23:25:29.445Z,97319.22
2022-12-11T23:27:56.333Z,97320.75
2022-12-11T23:30:23.963Z,97324.78
2022-12-11T23:32:50.647Z,97321.38
2022-12-11T23:35:17.449Z,97316.13
2022-12-11T23:37:44.143Z,97312.94
2022-12-11T23:40:11.316Z,97319.72
2022-12-11T23:42:37.929Z,97327.97
2022-12-11T23:45:04.965Z,97322.44
2022-12-11T23:47:31.869Z,97332.34
2022-12-11T23:49:58.501Z,97325.69
2022-12-11T23:52:26.623Z,97321.03
2022-12-11T23:54:55.219Z,97323.53
2022-12-11T23:57:23.520Z,97325.69
2022-12-11T23:59:50.254Z,97331.94
